Time,TemperatureF,DewpointF,PressureIn,WindDirection,WindDirectionDegrees,WindSpeedMPH,WindSpeedGustMPH,Humidity,HourlyPrecipIn,Conditions,Clouds,dailyrainin,SoftwareType,DateUTC
2013-02-15 00:00:00,24.8,21.2,29.92,North,0,0.0,0.0,86,0.00,,---,0.00,VWS V14.01,2013-02-15 05:00:00,
2013-02-15 00:01:00,24.8,21.2,29.92,North,0,0.0,0.0,86,0.00,,---,0.00,VWS V14.01,2013-02-15 05:01:00,
2013-02-15 00:06:00,24.8,21.2,29.92,North,0,0.0,0.0,86,0.00,,---,0.00,VWS V14.01,2013-02-15 05:06:00,
2013-02-15 00:11:00,24.8,21.2,29.92,North,0,0.0,0.0,86,0.00,,---,0.00,VWS V14.01,2013-02-15 05:11:00,
2013-02-15 00:16:00,24.4,20.8,29.92,North,0,0.0,0.0,86,0.00,,---,0.00,VWS V14.01,2013-02-15 05:16:00,
2013-02-15 00:21:00,24.4,20.8,29.92,North,0,0.0,0.0,86,0.00,,---,0.00,VWS V14.01,2013-02-15 05:21:00,
2013-02-15 00:26:00,24.4,20.8,29.92,North,0,0.0,0.0,86,0.00,,---,0.00,VWS V14.01,2013-02-15 05:26:00,
2013-02-15 00:31:00,23.9,20.3,29.92,North,0,0.0,0.0,86,0.00,,---,0.00,VWS V14.01,2013-02-15 05:31:00,
2013-02-15 00:36:00,23.9,20.3,29.92,North,0,0.0,0.0,86,0.00,,---,0.00,VWS V14.01,2013-02-15 05:36:00,
2013-02-15 00:41:00,23.9,20.3,29.92,North,0,0.0,0.0,86,0.00,,---,0.00,VWS V14.01,2013-02-15 05:41:00,
2013-02-15 00:46:00,24.4,20.8,29.92,North,0,0.0,0.0,86,0.00,,---,0.00,VWS V14.01,2013-02-15 05:46:00,
2013-02-15 00:51:00,24.4,20.8,29.92,North,0,0.0,0.0,86,0.00,,---,0.00,VWS V14.01,2013-02-15 05:51:00,
2013-02-15 00:56:00,25.3,21.7,29.92,North,0,0.0,0.0,86,0.00,,---,0.00,VWS V14.01,2013-02-15 05:56:00,
2013-02-15 01:00:00,26.4,22.8,29.92,North,0,0.0,0.0,86,0.00,,---,-99.99,VWS V14.01,2013-02-15 06:00:00,
2013-02-15 01:01:00,25.4,21.8,29.92,North,0,0.0,0.0,86,0.00,,---,0.00,VWS V14.01,2013-02-15 06:01:00,
2013-02-15 01:06:00,25.7,22.1,29.92,North,0,0.0,0.0,86,0.00,,---,0.00,VWS V14.01,2013-02-15 06:06:00,
2013-02-15 01:12:00,25.7,22.1,29.92,North,0,0.0,0.0,86,0.00,,---,0.00,VWS V14.01,2013-02-15 06:12:00,
2013-02-15 01:17:00,25.8,22.2,29.92,North,0,0.0,0.0,86,0.00,,---,0.00,VWS V14.01,2013-02-15 06:17:00,
2013-02-15 01:22:00,25.8,22.2,29.92,North,0,0.0,0.0,86,0.00,,---,0.00,VWS V14.01,2013-02-15 06:22:00,
2013-02-15 01:27:00,26.0,22.4,29.92,North,0,0.0,0.0,86,0.00,,---,0.00,VWS V14.01,2013-02-15 06:27:00,
2013-02-15 01:32:00,26.0,22.4,29.92,North,0,0.0,0.0,86,0.00,,---,0.00,VWS V14.01,2013-02-15 06:32:00,
2013-02-15 01:37:00,26.0,22.4,29.92,North,0,0.0,0.0,86,0.00,,---,0.00,VWS V14.01,2013-02-15 06:37:00,
2013-02-15 01:42:00,26.0,22.4,29.92,North,0,0.0,0.0,86,0.00,,---,0.00,VWS V14.01,2013-02-15 06:42:00,
2013-02-15 01:47:00,26.3,22.7,29.92,North,0,0.0,0.0,86,0.00,,---,0.00,VWS V14.01,2013-02-15 06:47:00,
2013-02-15 01:52:00,26.3,22.7,29.92,North,0,0.0,0.0,86,0.00,,---,0.00,VWS V14.01,2013-02-15 06:52:00,
2013-02-15 01:57:00,26.4,22.8,29.92,North,0,0.0,0.0,86,0.00,,---,0.00,VWS V14.01,2013-02-15 06:57:00,
2013-02-15 02:00:00,27.3,23.7,29.91,North,0,0.0,0.0,86,0.00,,---,-99.99,VWS V14.01,2013-02-15 07:00:00,
2013-02-15 02:02:00,26.4,22.8,29.92,North,0,0.0,0.0,86,0.00,,---,0.00,VWS V14.01,2013-02-15 07:02:00,
2013-02-15 02:07:00,26.4,22.8,29.92,North,0,0.0,0.0,86,0.00,,---,0.00,VWS V14.01,2013-02-15 07:07:00,
2013-02-15 02:12:00,26.4,22.8,29.92,North,0,0.0,0.0,86,0.00,,---,0.00,VWS V14.01,2013-02-15 07:12:00,
2013-02-15 02:17:00,26.9,23.3,29.91,North,0,0.0,0.0,86,0.00,,---,0.00,VWS V14.01,2013-02-15 07:17:00,
2013-02-15 02:22:00,26.9,23.3,29.91,North,0,0.0,0.0,86,0.00,,---,0.00,VWS V14.01,2013-02-15 07:22:00,
2013-02-15 02:27:00,27.0,23.4,29.91,North,0,0.0,0.0,86,0.00,,---,0.00,VWS V14.01,2013-02-15 07:27:00,
2013-02-15 02:33:00,27.2,23.6,29.91,North,0,0.0,0.0,86,0.00,,---,0.00,VWS V14.01,2013-02-15 07:33:00,
2013-02-15 02:38:00,27.2,23.6,29.91,North,0,0.0,0.0,86,0.00,,---,0.00,VWS V14.01,2013-02-15 07:38:00,
2013-02-15 02:43:00,27.3,23.7,29.91,North,0,0.0,0.0,86,0.00,,---,0.00,VWS V14.01,2013-02-15 07:43:00,
2013-02-15 02:48:00,27.3,23.7,29.91,North,0,0.0,0.0,86,0.00,,---,0.00,VWS V14.01,2013-02-15 07:48:00,
2013-02-15 02:53:00,27.3,23.7,29.91,North,0,0.0,0.0,86,0.00,,---,0.00,VWS V14.01,2013-02-15 07:53:00,
2013-02-15 02:58:00,27.3,23.7,29.91,North,0,0.0,0.0,86,0.00,,---,0.00,VWS V14.01,2013-02-15 07:58:00,
2013-02-15 03:00:00,28.4,27.1,29.91,North,0,0.0,0.0,95,0.00,,---,-99.99,VWS V14.01,2013-02-15 08:00:00,
2013-02-15 03:03:00,27.3,23.7,29.91,North,0,0.0,0.0,86,0.00,,---,0.00,VWS V14.01,2013-02-15 08:03:00,
2013-02-15 03:08:00,27.6,24.0,29.91,North,0,0.0,0.0,86,0.00,,---,0.00,VWS V14.01,2013-02-15 08:08:00,
2013-02-15 03:13:00,27.6,24.0,29.91,North,0,0.0,0.0,86,0.00,,---,0.00,VWS V14.01,2013-02-15 08:13:00,
2013-02-15 03:18:00,27.6,24.0,29.91,North,0,0.0,0.0,86,0.00,,---,0.00,VWS V14.01,2013-02-15 08:18:00,
2013-02-15 03:23:00,28.1,28.1,29.91,North,0,0.0,0.0,100,0.00,,---,0.00,VWS V14.01,2013-02-15 08:23:00,
2013-02-15 03:29:00,28.1,28.1,29.91,North,0,0.0,0.0,100,0.00,,---,0.00,VWS V14.01,2013-02-15 08:29:00,
2013-02-15 03:34:00,28.4,28.4,29.90,North,0,0.0,0.0,100,0.00,,---,0.00,VWS V14.01,2013-02-15 08:34:00,
2013-02-15 03:39:00,28.4,28.1,29.90,North,0,0.0,0.0,99,0.00,,---,0.00,VWS V14.01,2013-02-15 08:39:00,
2013-02-15 03:44:00,28.5,28.2,29.90,North,0,0.0,0.0,99,0.00,,---,0.00,VWS V14.01,2013-02-15 08:44:00,
2013-02-15 03:49:00,28.5,28.2,29.90,North,0,0.0,0.0,99,0.00,,---,0.00,VWS V14.01,2013-02-15 08:49:00,
2013-02-15 03:54:00,28.5,28.2,29.90,North,0,0.0,0.0,99,0.00,,---,0.00,VWS V14.01,2013-02-15 08:54:00,
2013-02-15 03:59:00,28.4,27.1,29.90,North,0,0.0,0.0,95,0.00,,---,0.00,VWS V14.01,2013-02-15 08:59:00,
2013-02-15 04:00:00,27.8,26.6,29.91,North,0,0.0,0.0,95,0.00,,---,-99.99,VWS V14.01,2013-02-15 09:00:00,
2013-02-15 04:04:00,28.4,27.1,29.91,North,0,0.0,0.0,95,0.00,,---,0.00,VWS V14.01,2013-02-15 09:04:00,
2013-02-15 04:09:00,28.4,27.1,29.91,North,0,0.0,0.0,95,0.00,,---,0.00,VWS V14.01,2013-02-15 09:09:00,
2013-02-15 04:14:00,28.2,27.0,29.91,North,0,0.0,0.0,95,0.00,,---,0.00,VWS V14.01,2013-02-15 09:14:00,
2013-02-15 04:20:00,28.2,27.0,29.91,North,0,0.0,0.0,95,0.00,,---,0.00,VWS V14.01,2013-02-15 09:20:00,
2013-02-15 04:25:00,28.1,26.9,29.91,North,0,0.0,0.0,95,0.00,,---,0.00,VWS V14.01,2013-02-15 09:25:00,
2013-02-15 04:30:00,27.9,26.7,29.91,North,0,0.0,0.0,95,0.00,,---,0.00,VWS V14.01,2013-02-15 09:30:00,
2013-02-15 04:35:00,27.8,26.6,29.91,North,0,0.0,0.0,95,0.00,,---,0.00,VWS V14.01,2013-02-15 09:35:00,
2013-02-15 04:40:00,27.8,26.6,29.91,North,0,0.0,0.0,95,0.00,,---,0.00,VWS V14.01,2013-02-15 09:40:00,
2013-02-15 04:45:00,27.8,26.6,29.91,North,0,0.0,0.0,95,0.00,,---,0.00,VWS V14.01,2013-02-15 09:45:00,
2013-02-15 04:50:00,27.8,26.6,29.91,North,0,0.0,0.0,95,0.00,,---,0.00,VWS V14.01,2013-02-15 09:50:00,
2013-02-15 04:55:00,27.8,26.6,29.91,North,0,0.0,0.0,95,0.00,,---,0.00,VWS V14.01,2013-02-15 09:55:00,
2013-02-15 05:00:00,27.8,26.6,29.91,North,0,0.0,0.0,95,0.00,,---,0.00,VWS V14.01,2013-02-15 10:00:00,
2013-02-15 05:05:00,27.8,26.6,29.91,North,0,0.0,0.0,95,0.00,,---,0.00,VWS V14.01,2013-02-15 10:05:00,
2013-02-15 05:10:00,27.9,26.7,29.91,North,0,0.0,0.0,95,0.00,,---,0.00,VWS V14.01,2013-02-15 10:10:00,
2013-02-15 05:15:00,27.9,27.9,29.91,North,0,0.0,0.0,100,0.00,,---,0.00,VWS V14.01,2013-02-15 10:15:00,
2013-02-15 05:20:00,27.9,27.9,29.91,North,0,0.0,0.0,100,0.00,,---,0.00,VWS V14.01,2013-02-15 10:20:00,
2013-02-15 05:26:00,27.9,27.9,29.91,North,0,0.0,0.0,100,0.00,,---,0.00,VWS V14.01,2013-02-15 10:26:00,
2013-02-15 05:31:00,27.6,27.6,29.90,North,0,0.0,0.0,100,0.00,,---,0.00,VWS V14.01,2013-02-15 10:31:00,
2013-02-15 05:36:00,27.6,27.6,29.90,North,0,0.0,0.0,100,0.00,,---,0.00,VWS V14.01,2013-02-15 10:36:00,
2013-02-15 05:41:00,27.6,27.6,29.90,North,0,0.0,0.0,100,0.00,,---,0.00,VWS V14.01,2013-02-15 10:41:00,
2013-02-15 05:46:00,27.8,27.8,29.90,North,0,0.0,0.0,100,0.00,,---,0.00,VWS V14.01,2013-02-15 10:46:00,
2013-02-15 05:51:00,27.8,27.8,29.90,North,0,0.0,0.0,100,0.00,,---,0.00,VWS V14.01,2013-02-15 10:51:00,
2013-02-15 05:56:00,27.8,27.8,29.90,North,0,0.0,0.0,100,0.00,,---,0.00,VWS V14.01,2013-02-15 10:56:00,
2013-02-15 06:00:00,27.8,27.1,29.91,North,0,0.0,0.0,97,0.00,,---,-99.99,VWS V14.01,2013-02-15 11:00:00,
2013-02-15 06:01:00,27.8,27.8,29.90,North,0,0.0,0.0,100,0.00,,---,0.00,VWS V14.01,2013-02-15 11:01:00,
2013-02-15 06:06:00,27.6,26.9,29.90,North,0,0.0,0.0,97,0.00,,---,0.00,VWS V14.01,2013-02-15 11:06:00,
2013-02-15 06:11:00,27.6,26.9,29.90,North,0,0.0,0.0,97,0.00,,---,0.00,VWS V14.01,2013-02-15 11:11:00,
2013-02-15 06:16:00,27.5,26.8,29.90,North,0,0.0,0.0,97,0.00,,---,0.00,VWS V14.01,2013-02-15 11:16:00,
2013-02-15 06:21:00,27.5,26.8,29.90,North,0,0.0,0.0,97,0.00,,---,0.00,VWS V14.01,2013-02-15 11:21:00,
2013-02-15 06:26:00,27.5,26.8,29.90,North,0,0.0,0.0,97,0.00,,---,0.00,VWS V14.01,2013-02-15 11:26:00,
2013-02-15 06:31:00,27.8,27.1,29.90,North,0,0.0,0.0,97,0.00,,---,0.00,VWS V14.01,2013-02-15 11:31:00,
2013-02-15 06:36:00,27.8,27.1,29.90,North,0,0.0,0.0,97,0.00,,---,0.00,VWS V14.01,2013-02-15 11:36:00,
2013-02-15 06:42:00,27.6,26.9,29.90,North,0,0.0,0.0,97,0.00,,---,0.00,VWS V14.01,2013-02-15 11:42:00,
2013-02-15 06:47:00,27.6,26.9,29.91,North,0,0.0,0.0,97,0.00,,---,0.00,VWS V14.01,2013-02-15 11:47:00,
2013-02-15 06:52:00,27.6,26.9,29.91,North,0,0.0,0.0,97,0.00,,---,0.00,VWS V14.01,2013-02-15 11:52:00,
2013-02-15 06:57:00,27.6,26.9,29.91,North,0,0.0,0.0,97,0.00,,---,0.00,VWS V14.01,2013-02-15 11:57:00,
2013-02-15 07:00:00,37.8,37.8,29.90,SSW,212,5.0,5.0,100,0.00,,---,-99.99,VWS V14.01,2013-02-15 12:00:00,
2013-02-15 07:02:00,27.8,27.1,29.91,North,0,0.0,0.0,97,0.00,,---,0.00,VWS V14.01,2013-02-15 12:02:00,
2013-02-15 07:07:00,28.2,27.5,29.91,North,0,0.0,0.0,97,0.00,,---,0.00,VWS V14.01,2013-02-15 12:07:00,
2013-02-15 07:12:00,28.5,27.8,29.91,North,0,0.0,0.0,97,0.00,,---,0.00,VWS V14.01,2013-02-15 12:12:00,
2013-02-15 07:17:00,29.3,28.6,29.91,North,0,0.0,0.0,97,0.00,,---,0.00,VWS V14.01,2013-02-15 12:17:00,
2013-02-15 07:23:00,29.3,28.6,29.91,North,0,0.0,0.0,97,0.00,,---,0.00,VWS V14.01,2013-02-15 12:23:00,
2013-02-15 07:28:00,31.6,30.9,29.91,North,0,0.0,0.0,97,0.00,,---,0.00,VWS V14.01,2013-02-15 12:28:00,
2013-02-15 07:33:00,31.6,30.9,29.90,SSE,154,1.0,1.0,97,0.00,,---,0.00,VWS V14.01,2013-02-15 12:33:00,
2013-02-15 07:38:00,31.6,30.9,29.90,South,188,0.0,1.0,97,0.00,,---,0.00,VWS V14.01,2013-02-15 12:38:00,
2013-02-15 07:43:00,31.6,30.9,29.90,SSW,212,0.0,2.0,97,0.00,,---,0.00,VWS V14.01,2013-02-15 12:43:00,
2013-02-15 07:48:00,31.6,31.6,29.90,South,191,3.0,3.0,100,0.00,,---,0.00,VWS V14.01,2013-02-15 12:48:00,
2013-02-15 07:53:00,37.8,37.8,29.90,SE,133,2.0,3.0,100,0.00,,---,0.00,VWS V14.01,2013-02-15 12:53:00,
2013-02-15 07:58:00,37.8,37.8,29.90,SSW,212,5.0,5.0,100,0.00,,---,0.00,VWS V14.01,2013-02-15 12:58:00,
2013-02-15 08:00:00,40.2,40.2,29.89,SSW,198,2.0,11.0,100,0.00,,---,-99.99,VWS V14.01,2013-02-15 13:00:00,
2013-02-15 08:03:00,38.9,38.9,29.90,South,174,1.0,5.0,100,0.00,,---,0.00,VWS V14.01,2013-02-15 13:03:00,
2013-02-15 08:08:00,38.9,38.9,29.90,SE,131,1.0,5.0,100,0.00,,---,0.00,VWS V14.01,2013-02-15 13:08:00,
2013-02-15 08:13:00,38.9,38.9,29.90,SSW,203,6.0,6.0,100,0.00,,---,0.00,VWS V14.01,2013-02-15 13:13:00,
2013-02-15 08:18:00,38.9,38.9,29.90,SSW,205,5.0,6.0,100,0.00,,---,0.00,VWS V14.01,2013-02-15 13:18:00,
2013-02-15 08:23:00,38.9,38.9,29.90,South,185,8.0,8.0,100,0.00,,---,0.00,VWS V14.01,2013-02-15 13:23:00,
2013-02-15 08:29:00,39.3,39.3,29.90,South,188,2.0,8.0,100,0.00,,---,0.00,VWS V14.01,2013-02-15 13:29:00,
2013-02-15 08:34:00,39.3,39.3,29.90,SSW,209,2.0,8.0,100,0.00,,---,0.00,VWS V14.01,2013-02-15 13:34:00,
2013-02-15 08:39:00,39.5,39.5,29.90,SW,222,5.0,8.0,100,0.00,,---,0.00,VWS V14.01,2013-02-15 13:39:00,
2013-02-15 08:44:00,39.6,39.6,29.90,SW,220,7.0,8.0,100,0.00,,---,0.00,VWS V14.01,2013-02-15 13:44:00,
2013-02-15 08:49:00,39.9,39.9,29.90,SSW,208,6.0,11.0,100,0.00,,---,0.00,VWS V14.01,2013-02-15 13:49:00,
2013-02-15 08:54:00,39.9,39.9,29.90,SSW,208,10.0,11.0,100,0.00,,---,0.00,VWS V14.01,2013-02-15 13:54:00,
2013-02-15 08:59:00,40.2,40.2,29.90,SSW,198,2.0,11.0,100,0.00,,---,0.00,VWS V14.01,2013-02-15 13:59:00,
2013-02-15 09:00:00,41.3,34.3,29.91,SSW,210,10.0,13.0,76,0.00,,---,-99.99,VWS V14.01,2013-02-15 14:00:00,
2013-02-15 09:04:00,40.2,40.2,29.89,SSW,198,2.0,2.0,100,0.00,,---,0.00,VWS V14.01,2013-02-15 14:04:00,
2013-02-15 09:09:00,40.2,40.2,29.89,SSW,198,2.0,2.0,100,0.00,,---,0.00,VWS V14.01,2013-02-15 14:09:00,
2013-02-15 09:14:00,40.2,40.2,29.90,SSW,198,2.0,2.0,100,0.00,,---,0.00,VWS V14.01,2013-02-15 14:14:00,
2013-02-15 09:20:00,41.1,34.8,29.90,South,181,3.0,8.0,78,0.00,,---,0.00,VWS V14.01,2013-02-15 14:20:00,
2013-02-15 09:25:00,41.3,34.7,29.90,South,171,2.0,11.0,77,0.00,,---,0.00,VWS V14.01,2013-02-15 14:25:00,
2013-02-15 09:30:00,41.5,34.8,29.90,SSW,196,5.0,11.0,77,0.00,,---,0.00,VWS V14.01,2013-02-15 14:30:00,
2013-02-15 09:35:00,41.3,34.3,29.90,South,185,5.0,11.0,76,0.00,,---,0.00,VWS V14.01,2013-02-15 14:35:00,
2013-02-15 09:40:00,41.2,34.2,29.90,SSW,202,7.0,11.0,76,0.00,,---,0.00,VWS V14.01,2013-02-15 14:40:00,
2013-02-15 09:45:00,41.2,34.2,29.91,SSW,202,7.0,11.0,76,0.00,,---,0.00,VWS V14.01,2013-02-15 14:45:00,
2013-02-15 09:50:00,41.2,34.2,29.91,SSW,208,3.0,11.0,76,0.00,,---,0.00,VWS V14.01,2013-02-15 14:50:00,
2013-02-15 09:55:00,41.3,34.3,29.91,South,185,10.0,12.0,76,0.00,,---,0.00,VWS V14.01,2013-02-15 14:55:00,
2013-02-15 10:00:00,41.3,34.3,29.91,SSW,210,10.0,13.0,76,0.00,,---,0.00,VWS V14.01,2013-02-15 15:00:00,
2013-02-15 10:05:00,41.1,34.8,29.91,SW,217,9.0,10.0,78,0.00,,---,0.00,VWS V14.01,2013-02-15 15:05:00,
2013-02-15 10:10:00,40.9,34.6,29.91,South,175,8.0,10.0,78,0.00,,---,0.00,VWS V14.01,2013-02-15 15:10:00,
2013-02-15 10:15:00,40.6,34.3,29.91,SSW,203,6.0,12.0,78,0.00,,---,0.00,VWS V14.01,2013-02-15 15:15:00,
2013-02-15 10:20:00,40.6,34.3,29.91,SSW,208,8.0,12.0,78,0.00,,---,0.00,VWS V14.01,2013-02-15 15:20:00,
2013-02-15 10:25:00,40.6,34.3,29.91,SSW,208,8.0,12.0,78,0.00,,---,0.00,VWS V14.01,2013-02-15 15:25:00,
2013-02-15 10:30:00,40.6,34.3,29.91,South,191,3.0,12.0,78,0.00,,---,0.00,VWS V14.01,2013-02-15 15:30:00,
2013-02-15 10:36:00,40.1,33.8,29.91,SSW,210,6.0,12.0,78,0.00,,---,0.00,VWS V14.01,2013-02-15 15:36:00,
2013-02-15 10:41:00,39.9,33.6,29.91,SSW,203,3.0,12.0,78,0.00,,---,0.00,VWS V14.01,2013-02-15 15:41:00,
2013-02-15 10:46:00,39.9,33.6,29.92,South,174,5.0,12.0,78,0.00,,---,0.00,VWS V14.01,2013-02-15 15:46:00,
2013-02-15 10:51:00,39.8,33.5,29.92,SE,131,5.0,12.0,78,0.00,,---,0.00,VWS V14.01,2013-02-15 15:51:00,
2013-02-15 10:56:00,39.8,33.5,29.92,South,176,7.0,12.0,78,0.00,,---,0.00,VWS V14.01,2013-02-15 15:56:00,
2013-02-15 11:00:00,41.3,35.0,29.89,SSW,203,7.0,10.0,78,0.00,,---,-99.99,VWS V14.01,2013-02-15 16:00:00,
2013-02-15 11:01:00,39.8,33.5,29.91,SSE,168,2.0,2.0,78,0.00,,---,0.00,VWS V14.01,2013-02-15 16:01:00,
2013-02-15 11:06:00,39.8,33.5,29.91,SW,215,6.0,10.0,78,0.00,,---,0.00,VWS V14.01,2013-02-15 16:06:00,
2013-02-15 11:11:00,40.1,33.8,29.91,SSE,154,3.0,10.0,78,0.00,,---,0.00,VWS V14.01,2013-02-15 16:11:00,
2013-02-15 11:16:00,40.3,34.0,29.91,SSW,195,10.0,10.0,78,0.00,,---,0.00,VWS V14.01,2013-02-15 16:16:00,
2013-02-15 11:21:00,40.3,34.0,29.91,SSW,198,10.0,10.0,78,0.00,,---,0.00,VWS V14.01,2013-02-15 16:21:00,
2013-02-15 11:27:00,40.3,34.0,29.91,SSW,212,10.0,10.0,78,0.00,,---,0.00,VWS V14.01,2013-02-15 16:27:00,
2013-02-15 11:32:00,40.3,34.0,29.90,SSE,167,2.0,10.0,78,0.00,,---,0.00,VWS V14.01,2013-02-15 16:32:00,
2013-02-15 11:37:00,40.3,34.0,29.90,SSW,210,6.0,10.0,78,0.00,,---,0.00,VWS V14.01,2013-02-15 16:37:00,
2013-02-15 11:42:00,40.9,34.6,29.90,SSW,208,7.0,10.0,78,0.00,,---,0.00,VWS V14.01,2013-02-15 16:42:00,
2013-02-15 11:47:00,41.2,34.9,29.89,SE,124,5.0,10.0,78,0.00,,---,0.00,VWS V14.01,2013-02-15 16:47:00,
2013-02-15 11:52:00,41.3,35.0,29.89,South,171,5.0,10.0,78,0.00,,---,0.00,VWS V14.01,2013-02-15 16:52:00,
2013-02-15 11:57:00,41.3,35.0,29.89,SSW,200,2.0,10.0,78,0.00,,---,0.00,VWS V14.01,2013-02-15 16:57:00,
2013-02-15 12:00:00,41.3,36.5,29.86,SSW,210,3.0,16.0,83,0.00,,---,-99.99,VWS V14.01,2013-02-15 17:00:00,
2013-02-15 12:02:00,41.3,35.0,29.89,SSW,203,7.0,7.0,78,0.00,,---,0.00,VWS V14.01,2013-02-15 17:02:00,
2013-02-15 12:07:00,41.3,36.2,29.89,SSW,199,8.0,8.0,82,0.00,,---,0.00,VWS V14.01,2013-02-15 17:07:00,
2013-02-15 12:12:00,41.3,36.2,29.89,SSW,199,6.0,8.0,82,0.00,,---,0.00,VWS V14.01,2013-02-15 17:12:00,
2013-02-15 12:17:00,41.2,36.1,29.88,South,178,6.0,8.0,82,0.00,,---,0.00,VWS V14.01,2013-02-15 17:17:00,
2013-02-15 12:22:00,41.5,36.4,29.88,SSW,195,3.0,8.0,82,0.00,,---,0.00,VWS V14.01,2013-02-15 17:22:00,
2013-02-15 12:27:00,41.6,37.1,29.88,SW,215,8.0,13.0,84,0.00,,---,0.00,VWS V14.01,2013-02-15 17:27:00,
2013-02-15 12:32:00,41.6,36.8,29.87,SSE,158,8.0,13.0,83,0.00,,---,0.00,VWS V14.01,2013-02-15 17:32:00,
2013-02-15 12:37:00,41.5,36.7,29.87,SSW,202,2.0,16.0,83,0.00,,---,0.00,VWS V14.01,2013-02-15 17:37:00,
2013-02-15 12:43:00,41.5,36.7,29.87,SSW,209,8.0,16.0,83,0.00,,---,0.00,VWS V14.01,2013-02-15 17:43:00,
2013-02-15 12:48:00,41.5,36.7,29.87,South,186,6.0,16.0,83,0.00,,---,0.00,VWS V14.01,2013-02-15 17:48:00,
2013-02-15 12:53:00,41.6,36.8,29.87,WSW,237,3.0,16.0,83,0.00,,---,0.00,VWS V14.01,2013-02-15 17:53:00,
2013-02-15 12:58:00,41.3,36.5,29.87,East,93,2.0,16.0,83,0.00,,---,0.00,VWS V14.01,2013-02-15 17:58:00,
2013-02-15 13:00:00,42.2,36.8,29.85,South,169,3.0,18.0,81,0.00,,---,-99.99,VWS V14.01,2013-02-15 18:00:00,
2013-02-15 13:03:00,41.3,36.5,29.86,South,176,3.0,3.0,83,0.00,,---,0.00,VWS V14.01,2013-02-15 18:03:00,
2013-02-15 13:08:00,41.3,36.5,29.86,South,185,2.0,9.0,83,0.00,,---,0.00,VWS V14.01,2013-02-15 18:08:00,
2013-02-15 13:13:00,41.3,36.5,29.86,SW,216,6.0,9.0,83,0.00,,---,0.00,VWS V14.01,2013-02-15 18:13:00,
2013-02-15 13:18:00,41.5,36.7,29.86,SW,215,8.0,9.0,83,0.00,,---,0.00,VWS V14.01,2013-02-15 18:18:00,
2013-02-15 13:23:00,41.5,36.4,29.86,SSW,200,6.0,9.0,82,0.00,,---,0.00,VWS V14.01,2013-02-15 18:23:00,
2013-02-15 13:28:00,42.1,37.0,29.86,SSW,213,12.0,14.0,82,0.00,,---,0.00,VWS V14.01,2013-02-15 18:28:00,
2013-02-15 13:33:00,42.2,37.1,29.85,SW,226,2.0,14.0,82,0.00,,---,0.00,VWS V14.01,2013-02-15 18:33:00,
2013-02-15 13:38:00,42.2,37.1,29.85,South,171,12.0,14.0,82,0.00,,---,0.00,VWS V14.01,2013-02-15 18:38:00,
2013-02-15 13:43:00,42.2,36.8,29.85,SSW,203,10.0,14.0,81,0.00,,---,0.00,VWS V14.01,2013-02-15 18:43:00,
2013-02-15 13:48:00,42.2,36.8,29.85,South,179,3.0,14.0,81,0.00,,---,0.00,VWS V14.01,2013-02-15 18:48:00,
2013-02-15 13:53:00,42.2,36.8,29.85,SW,223,12.0,14.0,81,0.00,,---,0.00,VWS V14.01,2013-02-15 18:53:00,
2013-02-15 13:58:00,42.2,36.8,29.85,SSW,210,11.0,18.0,81,0.00,,---,0.00,VWS V14.01,2013-02-15 18:58:00,
2013-02-15 14:00:00,42.2,36.5,29.86,SSW,208,3.0,13.0,80,0.00,,---,-99.99,VWS V14.01,2013-02-15 19:00:00,
2013-02-15 14:03:00,42.2,36.8,29.85,South,169,3.0,3.0,81,0.00,,---,0.00,VWS V14.01,2013-02-15 19:03:00,
2013-02-15 14:09:00,42.2,36.8,29.85,SW,227,6.0,13.0,81,0.00,,---,0.00,VWS V14.01,2013-02-15 19:09:00,
2013-02-15 14:14:00,42.1,36.7,29.85,SSW,200,8.0,13.0,81,0.00,,---,0.00,VWS V14.01,2013-02-15 19:14:00,
2013-02-15 14:19:00,42.1,36.7,29.85,SSW,198,4.0,13.0,81,0.00,,---,0.00,VWS V14.01,2013-02-15 19:19:00,
2013-02-15 14:24:00,42.1,36.7,29.85,SSW,208,7.0,13.0,81,0.00,,---,0.00,VWS V14.01,2013-02-15 19:24:00,
2013-02-15 14:29:00,42.1,36.7,29.85,West,268,6.0,13.0,81,0.00,,---,0.00,VWS V14.01,2013-02-15 19:29:00,
2013-02-15 14:34:00,42.1,36.7,29.85,SW,215,6.0,13.0,81,0.00,,---,0.00,VWS V14.01,2013-02-15 19:34:00,
2013-02-15 14:39:00,42.2,36.8,29.85,South,171,6.0,13.0,81,0.00,,---,0.00,VWS V14.01,2013-02-15 19:39:00,
2013-02-15 14:44:00,42.2,36.5,29.85,South,188,8.0,13.0,80,0.00,,---,0.00,VWS V14.01,2013-02-15 19:44:00,
2013-02-15 14:49:00,42.2,36.5,29.85,SW,229,5.0,13.0,80,0.00,,---,0.00,VWS V14.01,2013-02-15 19:49:00,
2013-02-15 14:54:00,42.2,36.5,29.85,SSW,206,12.0,13.0,80,0.00,,---,0.00,VWS V14.01,2013-02-15 19:54:00,
2013-02-15 14:59:00,42.2,36.5,29.86,SSW,208,3.0,13.0,80,0.00,,---,0.00,VWS V14.01,2013-02-15 19:59:00,
2013-02-15 15:00:00,41.1,36.6,29.86,SW,223,10.0,11.0,84,0.00,,---,-99.99,VWS V14.01,2013-02-15 20:00:00,
2013-02-15 15:04:00,42.2,36.5,29.86,SW,215,8.0,8.0,80,0.00,,---,0.00,VWS V14.01,2013-02-15 20:04:00,
2013-02-15 15:09:00,41.8,36.1,29.86,SE,137,11.0,11.0,80,0.00,,---,0.00,VWS V14.01,2013-02-15 20:09:00,
2013-02-15 15:14:00,41.8,36.1,29.86,SW,236,2.0,11.0,80,0.00,,---,0.00,VWS V14.01,2013-02-15 20:14:00,
2013-02-15 15:20:00,41.6,35.9,29.86,SSW,208,10.0,11.0,80,0.00,,---,0.00,VWS V14.01,2013-02-15 20:20:00,
2013-02-15 15:25:00,41.5,35.8,29.86,SSW,206,6.0,11.0,80,0.00,,---,0.00,VWS V14.01,2013-02-15 20:25:00,
2013-02-15 15:30:00,41.3,35.6,29.86,SW,233,5.0,11.0,80,0.00,,---,0.00,VWS V14.01,2013-02-15 20:30:00,
2013-02-15 15:35:00,41.2,36.7,29.86,South,172,7.0,11.0,84,0.00,,---,0.00,VWS V14.01,2013-02-15 20:35:00,
2013-02-15 15:40:00,41.2,36.7,29.86,SW,217,7.0,11.0,84,0.00,,---,0.00,VWS V14.01,2013-02-15 20:40:00,
2013-02-15 15:45:00,41.2,36.7,29.86,SSE,168,5.0,11.0,84,0.00,,---,0.00,VWS V14.01,2013-02-15 20:45:00,
2013-02-15 15:50:00,41.2,36.7,29.86,SSW,209,8.0,11.0,84,0.00,,---,0.00,VWS V14.01,2013-02-15 20:50:00,
2013-02-15 15:55:00,41.1,36.6,29.86,SW,223,10.0,11.0,84,0.00,,---,0.00,VWS V14.01,2013-02-15 20:55:00,
2013-02-15 16:00:00,41.1,36.6,29.86,SW,223,10.0,11.0,84,0.00,,---,0.00,VWS V14.01,2013-02-15 21:00:00,
2013-02-15 16:05:00,41.1,36.6,29.86,SSW,210,8.0,10.0,84,0.00,,---,0.00,VWS V14.01,2013-02-15 21:05:00,
2013-02-15 16:11:00,41.1,36.6,29.86,SW,222,8.0,10.0,84,0.00,,---,0.00,VWS V14.01,2013-02-15 21:11:00,
2013-02-15 16:16:00,41.1,36.6,29.86,SSW,210,8.0,10.0,84,0.00,,---,0.00,VWS V14.01,2013-02-15 21:16:00,
2013-02-15 16:21:00,41.1,36.6,29.86,SSE,161,8.0,10.0,84,0.00,,---,0.00,VWS V14.01,2013-02-15 21:21:00,
2013-02-15 16:26:00,41.1,37.8,29.86,SSW,213,8.0,10.0,88,0.00,,---,0.00,VWS V14.01,2013-02-15 21:26:00,
2013-02-15 16:31:00,41.1,37.8,29.86,SW,219,5.0,10.0,88,0.00,,---,0.00,VWS V14.01,2013-02-15 21:31:00,
2013-02-15 16:37:00,41.1,37.8,29.86,SW,217,4.0,10.0,88,0.00,,---,0.00,VWS V14.01,2013-02-15 21:37:00,
2013-02-15 16:42:00,41.1,37.8,29.86,SSW,212,8.0,10.0,88,0.00,,---,0.00,VWS V14.01,2013-02-15 21:42:00,
2013-02-15 16:47:00,40.8,37.5,29.85,SSW,205,6.0,10.0,88,0.00,,---,0.00,VWS V14.01,2013-02-15 21:47:00,
2013-02-15 16:52:00,40.8,38.1,29.85,SSW,208,8.0,10.0,90,0.00,,---,0.00,VWS V14.01,2013-02-15 21:52:00,
2013-02-15 16:57:00,40.8,38.1,29.85,SSW,205,6.0,10.0,90,0.00,,---,0.00,VWS V14.01,2013-02-15 21:57:00,
2013-02-15 17:00:00,40.5,38.4,29.87,SSW,212,7.0,10.0,92,0.00,,---,-99.99,VWS V14.01,2013-02-15 22:00:00,
2013-02-15 17:03:00,40.6,37.9,29.86,SSW,206,5.0,5.0,90,0.00,,---,0.00,VWS V14.01,2013-02-15 22:03:00,
2013-02-15 17:08:00,40.6,37.9,29.86,SSE,164,7.0,7.0,90,0.00,,---,0.00,VWS V14.01,2013-02-15 22:08:00,
2013-02-15 17:13:00,40.5,37.8,29.86,South,181,5.0,7.0,90,0.00,,---,0.00,VWS V14.01,2013-02-15 22:13:00,
2013-02-15 17:18:00,40.5,38.4,29.86,SSE,165,7.0,8.0,92,0.00,,---,0.00,VWS V14.01,2013-02-15 22:18:00,
2013-02-15 17:24:00,40.5,38.4,29.86,SSW,212,7.0,8.0,92,0.00,,---,0.00,VWS V14.01,2013-02-15 22:24:00,
2013-02-15 17:29:00,40.5,38.4,29.86,SSW,206,8.0,8.0,92,0.00,,---,0.00,VWS V14.01,2013-02-15 22:29:00,
2013-02-15 17:34:00,40.5,38.4,29.86,South,179,2.0,8.0,92,0.00,,---,0.00,VWS V14.01,2013-02-15 22:34:00,
2013-02-15 17:39:00,40.5,38.4,29.86,SSW,210,6.0,10.0,92,0.00,,---,0.00,VWS V14.01,2013-02-15 22:39:00,
2013-02-15 17:44:00,40.8,38.7,29.86,SSW,209,7.0,10.0,92,0.00,,---,0.00,VWS V14.01,2013-02-15 22:44:00,
2013-02-15 17:49:00,40.8,38.7,29.86,SW,216,6.0,10.0,92,0.00,,---,0.00,VWS V14.01,2013-02-15 22:49:00,
2013-02-15 17:54:00,40.8,38.7,29.86,SW,232,8.0,10.0,92,0.00,,---,0.00,VWS V14.01,2013-02-15 22:54:00,
2013-02-15 18:00:00,40.5,38.4,29.87,SSW,212,7.0,10.0,92,0.00,,---,0.00,VWS V14.01,2013-02-15 23:00:00,
2013-02-15 18:05:00,40.5,38.4,29.87,SSW,209,6.0,7.0,92,0.00,,---,0.00,VWS V14.01,2013-02-15 23:05:00,
2013-02-15 18:10:00,40.5,38.4,29.87,SSW,205,6.0,7.0,92,0.00,,---,0.00,VWS V14.01,2013-02-15 23:10:00,
2013-02-15 18:15:00,40.3,38.2,29.86,SW,215,6.0,7.0,92,0.00,,---,0.00,VWS V14.01,2013-02-15 23:15:00,
2013-02-15 18:20:00,40.3,38.2,29.86,SSW,200,3.0,7.0,92,0.00,,---,0.00,VWS V14.01,2013-02-15 23:20:00,
2013-02-15 18:25:00,40.3,38.2,29.86,SE,143,7.0,7.0,92,0.00,,---,0.00,VWS V14.01,2013-02-15 23:25:00,
2013-02-15 18:30:00,40.1,38.0,29.86,SSW,196,2.0,7.0,92,0.00,,---,0.00,VWS V14.01,2013-02-15 23:30:00,
2013-02-15 18:35:00,40.1,38.0,29.86,SSW,209,1.0,7.0,92,0.00,,---,0.00,VWS V14.01,2013-02-15 23:35:00,
2013-02-15 18:40:00,40.2,38.1,29.86,South,184,0.0,7.0,92,0.00,,---,0.00,VWS V14.01,2013-02-15 23:40:00,
2013-02-15 18:45:00,40.2,38.1,29.86,SSW,199,2.0,7.0,92,0.00,,---,0.00,VWS V14.01,2013-02-15 23:45:00,
2013-02-15 18:50:00,40.2,38.1,29.86,SSW,208,1.0,7.0,92,0.00,,---,0.00,VWS V14.01,2013-02-15 23:50:00,
2013-02-15 18:56:00,40.2,39.4,29.86,SSW,212,2.0,7.0,97,0.00,,---,0.00,VWS V14.01,2013-02-15 23:56:00,
2013-02-15 19:00:00,40.1,40.1,29.86,SSE,151,0.0,5.0,100,0.00,,---,-99.99,VWS V14.01,2013-02-16 00:00:00,
2013-02-15 19:01:00,40.2,40.2,29.86,South,181,2.0,2.0,100,0.00,,---,0.00,VWS V14.01,2013-02-16 00:01:00,
2013-02-15 19:06:00,40.2,40.2,29.86,SSW,199,2.0,5.0,100,0.00,,---,0.00,VWS V14.01,2013-02-16 00:06:00,
2013-02-15 19:11:00,40.1,40.1,29.86,SSW,203,2.0,5.0,100,0.00,,---,0.00,VWS V14.01,2013-02-16 00:11:00,
2013-02-15 19:16:00,40.1,40.1,29.86,South,179,2.0,5.0,100,0.00,,---,0.00,VWS V14.01,2013-02-16 00:16:00,
2013-02-15 19:21:00,40.1,40.1,29.86,SSW,202,0.0,5.0,100,0.00,,---,0.00,VWS V14.01,2013-02-16 00:21:00,
2013-02-15 19:26:00,40.1,40.1,29.86,SSW,213,0.0,5.0,100,0.00,,---,0.00,VWS V14.01,2013-02-16 00:26:00,
2013-02-15 19:31:00,40.1,40.1,29.85,SSW,206,0.0,5.0,100,0.00,,---,0.00,VWS V14.01,2013-02-16 00:31:00,
2013-02-15 19:36:00,40.1,40.1,29.85,South,181,0.0,5.0,100,0.00,,---,0.00,VWS V14.01,2013-02-16 00:36:00,
2013-02-15 19:41:00,40.1,40.1,29.85,SSW,206,0.0,5.0,100,0.00,,---,0.00,VWS V14.01,2013-02-16 00:41:00,
2013-02-15 19:46:00,40.1,40.1,29.86,South,191,0.0,5.0,100,0.00,,---,0.00,VWS V14.01,2013-02-16 00:46:00,
2013-02-15 19:51:00,40.1,40.1,29.86,SSW,209,3.0,5.0,100,0.00,,---,0.00,VWS V14.01,2013-02-16 00:51:00,
2013-02-15 19:56:00,40.1,40.1,29.86,SSE,151,0.0,5.0,100,0.00,,---,0.00,VWS V14.01,2013-02-16 00:56:00,
2013-02-15 20:00:00,40.3,39.0,29.86,SSW,196,0.0,3.0,95,0.00,,---,-99.99,VWS V14.01,2013-02-16 01:00:00,
2013-02-15 20:01:00,40.1,40.1,29.86,SSW,195,0.0,0.0,100,0.00,,---,0.00,VWS V14.01,2013-02-16 01:01:00,
2013-02-15 20:06:00,40.2,40.2,29.86,South,191,1.0,1.0,100,0.00,,---,0.00,VWS V14.01,2013-02-16 01:06:00,
2013-02-15 20:11:00,40.2,40.2,29.86,South,191,0.0,1.0,100,0.00,,---,0.00,VWS V14.01,2013-02-16 01:11:00,
2013-02-15 20:16:00,40.2,40.2,29.86,South,188,0.0,1.0,100,0.00,,---,0.00,VWS V14.01,2013-02-16 01:16:00,
2013-02-15 20:21:00,40.2,40.2,29.86,South,188,0.0,1.0,100,0.00,,---,0.00,VWS V14.01,2013-02-16 01:21:00,
2013-02-15 20:27:00,40.1,40.1,29.86,South,186,0.0,1.0,100,0.00,,---,0.00,VWS V14.01,2013-02-16 01:27:00,
2013-02-15 20:32:00,40.1,40.1,29.86,South,184,0.0,1.0,100,0.00,,---,0.00,VWS V14.01,2013-02-16 01:32:00,
2013-02-15 20:37:00,40.2,40.2,29.86,SSW,192,0.0,2.0,100,0.00,,---,0.00,VWS V14.01,2013-02-16 01:37:00,
2013-02-15 20:42:00,40.2,40.2,29.86,SSW,205,3.0,3.0,100,0.00,,---,0.00,VWS V14.01,2013-02-16 01:42:00,
2013-02-15 20:47:00,40.3,40.3,29.86,South,189,0.0,3.0,100,0.00,,---,0.00,VWS V14.01,2013-02-16 01:47:00,
2013-02-15 20:52:00,40.3,40.3,29.86,SSW,200,0.0,3.0,100,0.00,,---,0.00,VWS V14.01,2013-02-16 01:52:00,
2013-02-15 20:57:00,40.3,39.0,29.86,SSW,196,2.0,3.0,95,0.00,,---,0.00,VWS V14.01,2013-02-16 01:57:00,
2013-02-15 21:00:00,40.8,39.5,29.86,SSW,193,2.0,8.0,95,0.00,,---,-99.99,VWS V14.01,2013-02-16 02:00:00,
2013-02-15 21:03:00,40.3,39.0,29.86,SSW,206,5.0,5.0,95,0.00,,---,0.00,VWS V14.01,2013-02-16 02:03:00,
2013-02-15 21:08:00,40.3,39.0,29.86,South,171,5.0,5.0,95,0.00,,---,0.00,VWS V14.01,2013-02-16 02:08:00,
2013-02-15 21:14:00,40.8,39.5,29.86,South,172,0.0,5.0,95,0.00,,---,0.00,VWS V14.01,2013-02-16 02:14:00,
2013-02-15 21:19:00,40.8,39.5,29.86,South,169,2.0,5.0,95,0.00,,---,0.00,VWS V14.01,2013-02-16 02:19:00,
2013-02-15 21:24:00,40.8,39.5,29.86,SSW,208,2.0,5.0,95,0.00,,---,0.00,VWS V14.01,2013-02-16 02:24:00,
2013-02-15 21:29:00,40.8,39.5,29.86,SSW,203,5.0,5.0,95,0.00,,---,0.00,VWS V14.01,2013-02-16 02:29:00,
2013-02-15 21:34:00,40.8,39.5,29.86,SW,229,8.0,8.0,95,0.00,,---,0.00,VWS V14.01,2013-02-16 02:34:00,
2013-02-15 21:39:00,40.9,39.6,29.86,SSW,200,2.0,8.0,95,0.00,,---,0.00,VWS V14.01,2013-02-16 02:39:00,
2013-02-15 21:44:00,40.8,39.5,29.86,South,174,2.0,8.0,95,0.00,,---,0.00,VWS V14.01,2013-02-16 02:44:00,
2013-02-15 21:49:00,40.8,39.5,29.86,SSW,196,3.0,8.0,95,0.00,,---,0.00,VWS V14.01,2013-02-16 02:49:00,
2013-02-15 21:54:00,40.8,39.5,29.86,South,191,3.0,8.0,95,0.00,,---,0.00,VWS V14.01,2013-02-16 02:54:00,
2013-02-15 21:59:00,40.8,39.5,29.86,SSW,193,2.0,8.0,95,0.00,,---,0.00,VWS V14.01,2013-02-16 02:59:00,
2013-02-15 22:00:00,39.6,38.6,29.85,South,189,0.0,3.0,96,0.00,,---,-99.99,VWS V14.01,2013-02-16 03:00:00,
2013-02-15 22:04:00,40.6,39.3,29.86,SSW,193,3.0,3.0,95,0.00,,---,0.00,VWS V14.01,2013-02-16 03:04:00,
2013-02-15 22:10:00,40.3,39.0,29.86,South,191,0.0,3.0,95,0.00,,---,0.00,VWS V14.01,2013-02-16 03:10:00,
2013-02-15 22:15:00,40.3,39.0,29.85,South,189,0.0,3.0,95,0.00,,---,0.00,VWS V14.01,2013-02-16 03:15:00,
2013-02-15 22:20:00,40.1,38.8,29.85,South,185,0.0,3.0,95,0.00,,---,0.00,VWS V14.01,2013-02-16 03:20:00,
2013-02-15 22:25:00,40.1,39.0,29.85,SSE,165,2.0,3.0,96,0.00,,---,0.00,VWS V14.01,2013-02-16 03:25:00,
2013-02-15 22:30:00,40.1,39.0,29.85,SSW,203,0.0,3.0,96,0.00,,---,0.00,VWS V14.01,2013-02-16 03:30:00,
2013-02-15 22:35:00,40.1,39.0,29.85,South,188,0.0,3.0,96,0.00,,---,0.00,VWS V14.01,2013-02-16 03:35:00,
2013-02-15 22:40:00,39.8,38.8,29.85,South,185,0.0,3.0,96,0.00,,---,0.00,VWS V14.01,2013-02-16 03:40:00,
2013-02-15 22:45:00,39.8,38.8,29.85,South,184,0.0,3.0,96,0.00,,---,0.00,VWS V14.01,2013-02-16 03:45:00,
2013-02-15 22:50:00,39.6,38.6,29.85,SSW,192,3.0,3.0,96,0.00,,---,0.00,VWS V14.01,2013-02-16 03:50:00,
2013-02-15 22:55:00,39.6,38.6,29.85,South,189,0.0,3.0,96,0.00,,---,0.00,VWS V14.01,2013-02-16 03:55:00,
2013-02-15 23:00:00,39.6,38.6,29.85,South,189,0.0,0.0,96,0.00,,---,0.00,VWS V14.01,2013-02-16 04:00:00,
2013-02-15 23:05:00,39.6,38.6,29.85,South,189,0.0,0.0,96,0.00,,---,0.00,VWS V14.01,2013-02-16 04:05:00,
2013-02-15 23:11:00,39.6,38.8,29.85,South,189,0.0,0.0,97,0.00,,---,0.00,VWS V14.01,2013-02-16 04:11:00,
2013-02-15 23:16:00,39.5,38.7,29.85,South,189,0.0,0.0,97,0.00,,---,0.00,VWS V14.01,2013-02-16 04:16:00,
2013-02-15 23:21:00,39.5,39.5,29.85,South,189,0.0,0.0,100,0.00,,---,0.00,VWS V14.01,2013-02-16 04:21:00,
2013-02-15 23:26:00,39.5,39.5,29.85,South,189,0.0,0.0,100,0.00,,---,0.00,VWS V14.01,2013-02-16 04:26:00,
2013-02-15 23:31:00,39.5,39.5,29.85,South,189,0.0,0.0,100,0.00,,---,0.00,VWS V14.01,2013-02-16 04:31:00,
2013-02-15 23:36:00,38.6,38.6,29.85,South,191,0.0,0.0,100,0.00,,---,0.00,VWS V14.01,2013-02-16 04:36:00,
2013-02-15 23:41:00,38.0,38.0,29.85,South,191,0.0,0.0,100,0.00,,---,0.00,VWS V14.01,2013-02-16 04:41:00,
2013-02-15 23:46:00,37.5,37.5,29.84,South,191,0.0,0.0,100,0.00,,---,0.00,VWS V14.01,2013-02-16 04:46:00,
2013-02-15 23:51:00,36.9,36.9,29.84,South,191,0.0,0.0,100,0.00,,---,0.00,VWS V14.01,2013-02-16 04:51:00,
2013-02-15 23:56:00,36.5,36.2,29.84,South,191,0.0,0.0,99,0.00,,---,0.00,VWS V14.01,2013-02-16 04:56:00,